Time;durP1;ratioP1;P1;durP2;ratioP2;P2;SDS_P1;SDS_P2;PMS_P1;PMS_P2;Temp;Humidity;BMP_temperature;BMP_pressure;BME280_temperature;BME280_humidity;BME280_pressure;Samples;Min_cycle;Max_cycle;Signal;HPM_P1;HPM_P2
2024/03/28 00:00:23;;;;;;;3.40;1.90;;;;;;;5.43;71.57;97739.94;2473198;28;20036;-85
2024/03/28 00:01:36;;;;;;;2.28;1.80;;;;;;;5.40;72.06;97746.06;2474668;28;20032;-83
2024/03/28 00:02:49;;;;;;;3.22;2.05;;;;;;;5.36;72.08;97741.03;2479299;29;20032;-82
2024/03/28 00:04:03;;;;;;;2.28;1.83;;;;;;;5.31;72.34;97742.94;2478231;28;20033;-84
2024/03/28 00:05:16;;;;;;;2.53;2.33;;;;;;;5.25;72.42;97741.41;2469906;29;20031;-84
2024/03/28 00:06:29;;;;;;;13.88;2.53;;;;;;;5.21;72.36;97748.44;2462108;28;20051;-84
2024/03/28 00:07:42;;;;;;;2.65;2.00;;;;;;;5.16;72.53;97745.16;2470473;28;20067;-84
2024/03/28 00:08:56;;;;;;;1.63;1.50;;;;;;;5.12;72.81;97747.88;2470267;29;20028;-84
2024/03/28 00:10:09;;;;;;;3.92;2.05;;;;;;;5.08;72.66;97747.13;2470268;28;20043;-83
2024/03/28 00:11:22;;;;;;;3.88;1.85;;;;;;;5.03;72.87;97743.84;2475107;28;20071;-84
2024/03/28 00:12:35;;;;;;;3.80;1.73;;;;;;;4.99;73.32;97750.03;2471953;29;20032;-83
2024/03/28 00:13:49;;;;;;;2.03;1.80;;;;;;;4.93;73.01;97742.47;2479372;29;20457;-83
2024/03/28 00:15:02;;;;;;;2.38;1.98;;;;;;;4.88;73.08;97740.06;2479297;29;20382;-84
2024/03/28 00:16:15;;;;;;;3.28;2.97;;;;;;;4.82;73.41;97745.41;2490002;28;20049;-83
2024/03/28 00:17:29;;;;;;;4.63;2.20;;;;;;;4.75;73.07;97749.94;2475775;28;20055;-86
2024/03/28 00:18:42;;;;;;;4.75;2.58;;;;;;;4.71;73.52;97748.31;2462826;29;20413;-83
2024/03/28 00:19:55;;;;;;;2.40;2.17;;;;;;;4.64;73.91;97744.25;2470213;29;20425;-85
2024/03/28 00:21:08;;;;;;;2.28;1.75;;;;;;;4.56;73.55;97747.06;2471952;29;20082;-83
2024/03/28 00:22:22;;;;;;;2.97;2.58;;;;;;;4.47;73.96;97749.94;2464825;28;20517;-84
2024/03/28 00:23:35;;;;;;;3.60;2.15;;;;;;;4.41;73.88;97749.28;2520359;28;20565;-84
2024/03/28 00:24:48;;;;;;;2.08;1.35;;;;;;;4.32;73.90;97747.81;2508130;28;20081;-83
2024/03/28 00:26:01;;;;;;;7.35;2.00;;;;;;;4.24;74.12;97754.97;2470202;29;20062;-84
2024/03/28 00:27:15;;;;;;;2.13;1.70;;;;;;;4.18;74.16;97750.78;2479731;29;20032;-84
2024/03/28 00:28:28;;;;;;;8.02;2.20;;;;;;;4.11;74.38;97744.16;2468327;29;20583;-85
2024/03/28 00:29:41;;;;;;;1.80;1.70;;;;;;;4.06;74.46;97746.84;2472019;29;20547;-84
2024/03/28 00:30:54;;;;;;;3.33;2.20;;;;;;;4.01;74.67;97751.31;2480036;29;20677;-84
2024/03/28 00:32:07;;;;;;;2.33;2.10;;;;;;;3.98;74.90;97753.13;2479277;29;20126;-84
2024/03/28 00:33:21;;;;;;;2.78;2.25;;;;;;;3.92;75.15;97749.84;2478950;29;20044;-84
2024/03/28 00:34:34;;;;;;;3.15;2.13;;;;;;;3.86;75.22;97741.41;2461918;29;20031;-84
2024/03/28 00:35:49;;;;;;;2.20;2.00;;;;;;;3.82;75.55;97744.97;2471373;28;20032;-83
2024/03/28 00:37:02;;;;;;;3.58;2.00;;;;;;;3.77;75.37;97742.53;2465292;28;20047;-84
2024/03/28 00:38:16;;;;;;;2.38;2.17;;;;;;;3.72;75.91;97744.38;2459792;28;20036;-83
2024/03/28 00:39:29;;;;;;;2.80;2.00;;;;;;;3.67;75.65;97741.09;2472459;29;20040;-84
2024/03/28 00:40:47;;;;;;;2.50;2.17;;;;;;;3.62;75.71;97743.78;2473811;29;20028;-83
2024/03/28 00:42:00;;;;;;;2.15;1.95;;;;;;;3.55;75.75;97744.00;2472995;29;20051;-85
2024/03/28 00:43:14;;;;;;;2.25;2.03;;;;;;;3.50;76.12;97744.13;2475539;29;20082;-84
2024/03/28 00:44:28;;;;;;;3.35;2.55;;;;;;;3.46;76.22;97748.53;2473110;29;20036;-83
2024/03/28 00:45:41;;;;;;;4.85;2.33;;;;;;;3.43;76.18;97745.16;2461351;28;20028;-82
2024/03/28 00:46:55;;;;;;;4.25;3.85;;;;;;;3.40;76.43;97747.81;2481620;28;20032;-81
2024/03/28 00:48:08;;;;;;;2.20;2.00;;;;;;;3.35;76.50;97747.09;2472102;29;20051;-82
2024/03/28 00:49:22;;;;;;;4.15;2.50;;;;;;;3.28;76.68;97743.84;2469721;29;20062;-82
2024/03/28 00:50:35;;;;;;;4.70;2.42;;;;;;;3.22;76.69;97749.97;2477934;29;20038;-82
2024/03/28 00:51:49;;;;;;;1.98;1.77;;;;;;;3.19;76.70;97751.81;2479198;29;20032;-82
2024/03/28 00:53:03;;;;;;;3.13;2.72;;;;;;;3.16;77.01;97754.47;2477328;29;20054;-82
2024/03/28 00:54:16;;;;;;;2.38;2.17;;;;;;;3.14;76.91;97757.06;2472478;28;20485;-82
2024/03/28 00:55:30;;;;;;;2.53;2.33;;;;;;;3.16;77.15;97754.47;2471091;29;20080;-82
2024/03/28 00:56:43;;;;;;;3.53;2.10;;;;;;;3.14;77.34;97748.50;2476810;29;20032;-81
2024/03/28 00:57:56;;;;;;;2.88;2.58;;;;;;;3.14;77.28;97754.50;2475815;29;20036;-81
2024/03/28 00:59:09;;;;;;;2.58;2.22;;;;;;;3.10;77.28;97745.16;2478095;28;20086;-84
2024/03/28 01:00:22;;;;;;;2.50;2.30;;;;;;;3.06;77.21;97744.38;2477497;29;20019;-83
2024/03/28 01:01:36;;;;;;;5.00;2.33;;;;;;;3.03;77.54;97753.94;2474624;29;20145;-82
2024/03/28 01:02:49;;;;;;;5.55;2.67;;;;;;;2.97;77.55;97747.19;2471448;28;20059;-84
2024/03/28 01:04:02;;;;;;;3.08;2.83;;;;;;;2.91;77.40;97744.75;2504494;28;20031;-83
2024/03/28 01:05:15;;;;;;;2.38;2.15;;;;;;;2.87;77.47;97743.16;2472009;28;20043;-86
2024/03/28 01:06:29;;;;;;;3.47;2.72;;;;;;;2.82;77.67;97732.97;2473494;28;20039;-84
2024/03/28 01:07:42;;;;;;;2.67;2.22;;;;;;;2.78;77.81;97738.22;2463910;28;20060;-84
2024/03/28 01:08:55;;;;;;;2.58;2.30;;;;;;;2.73;77.76;97734.91;2465844;29;20039;-84
2024/03/28 01:10:09;;;;;;;3.45;3.15;;;;;;;2.70;77.70;97737.56;2470528;29;20155;-82
2024/03/28 01:11:22;;;;;;;2.95;2.65;;;;;;;2.66;77.83;97730.78;2479165;29;20070;-83
2024/03/28 01:12:35;;;;;;;3.03;2.72;;;;;;;2.61;77.89;97729.19;2474728;29;20102;-84
2024/03/28 01:13:48;;;;;;;2.60;2.40;;;;;;;2.57;77.60;97724.13;2463845;28;20020;-84
2024/03/28 01:15:02;;;;;;;3.50;2.60;;;;;;;2.53;78.01;97728.50;2474137;28;20078;-85
2024/03/28 01:16:15;;;;;;;2.67;2.47;;;;;;;2.52;78.18;97729.38;2487862;29;20495;-84
2024/03/28 01:17:31;;;;;;;6.35;3.00;;;;;;;2.51;78.38;97727.69;2478366;29;20036;-85
2024/03/28 01:18:44;;;;;;;3.40;2.60;;;;;;;2.47;78.19;97720.91;2520212;28;20082;-83
2024/03/28 01:19:58;;;;;;;2.88;2.67;;;;;;;2.45;78.18;97724.41;2480684;28;20056;-83
2024/03/28 01:21:11;;;;;;;2.55;2.33;;;;;;;2.40;78.44;97722.81;2473255;28;20031;-83
2024/03/28 01:22:24;;;;;;;3.13;2.83;;;;;;;2.38;78.22;97723.72;2479407;29;20028;-84
2024/03/28 01:23:37;;;;;;;2.85;2.60;;;;;;;2.35;78.47;97721.19;2472785;28;20035;-83
2024/03/28 01:24:51;;;;;;;5.97;2.63;;;;;;;2.33;78.44;97712.69;2463673;29;20024;-83
2024/03/28 01:26:04;;;;;;;2.85;2.55;;;;;;;2.31;78.45;97711.84;2463319;29;20020;-84
2024/03/28 01:27:18;;;;;;;2.67;2.47;;;;;;;2.27;78.45;97705.94;2468757;28;20028;-85
2024/03/28 01:28:32;;;;;;;2.28;1.95;;;;;;;2.25;78.59;97699.16;2471744;29;20071;-84
2024/03/28 01:29:45;;;;;;;2.65;2.17;;;;;;;2.19;78.46;97702.69;2485032;28;20172;-83
2024/03/28 01:31:01;;;;;;;3.40;2.70;;;;;;;2.16;78.76;97695.88;2483412;29;20036;-84
2024/03/28 01:32:14;;;;;;;2.55;2.15;;;;;;;2.13;78.76;97697.69;2483145;29;20070;-84
2024/03/28 01:33:28;;;;;;;3.20;2.33;;;;;;;2.09;78.77;97694.34;2480605;29;20472;-83
2024/03/28 01:34:41;;;;;;;3.53;2.03;;;;;;;2.09;78.92;97694.34;2479783;29;20032;-84
2024/03/28 01:35:55;;;;;;;3.30;2.40;;;;;;;2.08;78.89;97686.66;2477998;28;20059;-83
2024/03/28 01:37:08;;;;;;;4.38;2.65;;;;;;;2.06;79.13;97688.41;2476801;28;20027;-83
2024/03/28 01:38:21;;;;;;;4.05;2.88;;;;;;;2.03;79.17;97686.75;2487738;28;20039;-83
2024/03/28 01:39:34;;;;;;;2.35;2.15;;;;;;;2.04;78.98;97685.00;2477923;29;20082;-85
2024/03/28 01:40:47;;;;;;;4.05;2.60;;;;;;;2.02;79.13;97677.34;2490351;29;20148;-84
2024/03/28 01:42:01;;;;;;;2.85;2.35;;;;;;;2.00;79.20;97681.66;2486622;29;20040;-84
2024/03/28 01:43:14;;;;;;;2.90;2.65;;;;;;;1.96;79.16;97683.47;2480681;28;20051;-84
2024/03/28 01:44:27;;;;;;;3.28;2.20;;;;;;;1.97;79.25;97689.44;2472707;29;20031;-83
2024/03/28 01:45:40;;;;;;;2.85;2.65;;;;;;;1.96;79.27;97682.59;2476037;29;20054;-84
2024/03/28 01:46:54;;;;;;;2.95;2.40;;;;;;;1.94;79.50;97680.09;2478892;29;20201;-83
2024/03/28 01:48:08;;;;;;;2.88;2.67;;;;;;;1.93;79.68;97686.09;2473718;28;20040;-83
2024/03/28 01:49:21;;;;;;;2.63;2.42;;;;;;;1.91;79.38;97685.28;2508008;28;20022;-83
2024/03/28 01:50:35;;;;;;;3.42;3.13;;;;;;;1.88;79.57;97679.34;2490716;28;20019;-83
2024/03/28 01:51:48;;;;;;;3.17;2.58;;;;;;;1.85;79.57;97672.56;2479749;29;20039;-83
2024/03/28 01:53:02;;;;;;;2.63;2.42;;;;;;;1.82;79.62;97679.50;2481017;28;20026;-83
2024/03/28 01:54:15;;;;;;;3.25;2.90;;;;;;;1.78;79.78;97681.25;2502621;28;20516;-83
2024/03/28 01:55:28;;;;;;;3.00;2.80;;;;;;;1.76;79.71;97675.34;2480700;29;20039;-83
2024/03/28 01:56:42;;;;;;;2.75;2.55;;;;;;;1.77;80.01;97681.31;2476668;28;20055;-83
2024/03/28 01:57:59;;;;;;;3.40;2.42;;;;;;;1.74;79.85;97680.50;2475913;29;20025;-83
2024/03/28 01:59:14;;;;;;;5.70;2.85;;;;;;;1.75;79.86;97682.19;2473287;28;20036;-84
2024/03/28 02:00:28;;;;;;;4.55;3.75;;;;;;;1.73;79.96;97683.13;2482249;29;20020;-83
2024/03/28 02:01:44;;;;;;;4.68;3.33;;;;;;;1.70;79.85;97683.16;2471565;29;20059;-83
2024/03/28 02:02:57;;;;;;;6.47;2.92;;;;;;;1.67;79.84;97675.50;2481052;29;20082;-83
2024/03/28 02:04:11;;;;;;;5.72;3.35;;;;;;;1.66;79.91;97678.97;2479306;28;20087;-83
2024/03/28 02:05:24;;;;;;;2.58;2.35;;;;;;;1.64;79.96;97679.00;2481394;29;20028;-83
2024/03/28 02:06:37;;;;;;;3.63;2.88;;;;;;;1.62;79.81;97667.06;2479332;29;20083;-82
2024/03/28 02:07:51;;;;;;;3.10;2.80;;;;;;;1.60;80.01;97674.81;2479943;29;20569;-82
2024/03/28 02:09:08;;;;;;;3.42;2.30;;;;;;;1.60;80.21;97672.25;2484384;29;20028;-83
2024/03/28 02:10:21;;;;;;;3.17;2.90;;;;;;;1.58;80.02;97671.41;2475064;29;20046;-83
2024/03/28 02:11:34;;;;;;;6.13;3.20;;;;;;;1.58;80.21;97668.84;2481528;29;20065;-83
2024/03/28 02:12:48;;;;;;;2.97;2.67;;;;;;;1.56;80.20;97667.19;2478703;29;20466;-83
2024/03/28 02:14:01;;;;;;;6.68;2.30;;;;;;;1.49;80.19;97666.44;2488238;29;20023;-83
2024/03/28 02:15:16;;;;;;;3.33;2.65;;;;;;;1.46;80.18;97666.53;2476853;28;20544;-83
2024/03/28 02:16:35;;;;;;;4.50;2.92;;;;;;;1.41;80.15;97670.91;2473618;29;20028;-83
2024/03/28 02:17:49;;;;;;;3.03;2.72;;;;;;;1.36;80.11;97655.56;2472814;29;20107;-83
2024/03/28 02:19:03;;;;;;;3.22;2.88;;;;;;;1.35;80.40;97660.75;2480197;28;20025;-83
2024/03/28 02:20:17;;;;;;;3.05;2.85;;;;;;;1.34;80.27;97656.47;2477409;29;20073;-83
2024/03/28 02:21:30;;;;;;;2.80;2.47;;;;;;;1.36;80.53;97660.72;2476695;29;20470;-83
2024/03/28 02:22:44;;;;;;;3.70;2.75;;;;;;;1.37;80.48;97664.13;2491285;29;20030;-83
2024/03/28 02:23:57;;;;;;;3.63;2.28;;;;;;;1.41;80.79;97660.63;2468216;29;20518;-83
2024/03/28 02:25:12;;;;;;;4.70;3.00;;;;;;;1.43;80.88;97654.56;2472084;29;20111;-83
2024/03/28 02:26:25;;;;;;;4.03;2.72;;;;;;;1.48;80.73;97657.06;2469034;29;20024;-83
2024/03/28 02:27:39;;;;;;;3.42;2.58;;;;;;;1.50;80.85;97660.47;2509362;28;20411;-83
2024/03/28 02:28:53;;;;;;;3.55;2.45;;;;;;;1.52;81.08;97656.09;2479307;28;20100;-82
2024/03/28 02:30:07;;;;;;;3.85;2.60;;;;;;;1.54;80.91;97656.94;2478383;29;20054;-83
2024/03/28 02:31:20;;;;;;;4.03;3.72;;;;;;;1.57;81.33;97663.72;2485233;28;20452;-82
2024/03/28 02:32:35;;;;;;;2.35;2.15;;;;;;;1.58;80.84;97661.13;2487145;29;20031;-82
2024/03/28 02:33:48;;;;;;;4.82;2.67;;;;;;;1.59;80.89;97661.97;2479555;29;20028;-83
2024/03/28 02:35:03;;;;;;;3.35;3.05;;;;;;;1.61;80.71;97667.94;2488411;28;20106;-83
2024/03/28 02:36:16;;;;;;;2.67;2.47;;;;;;;1.61;80.89;97668.78;2471971;29;20148;-83
2024/03/28 02:37:31;;;;;;;6.93;3.30;;;;;;;1.61;80.96;97675.66;2510378;28;20036;-83
2024/03/28 02:38:44;;;;;;;4.57;3.08;;;;;;;1.61;81.13;97667.94;2481001;28;21812;-83
2024/03/28 02:39:57;;;;;;;3.42;3.13;;;;;;;1.62;81.01;97675.59;2463810;28;20099;-83
2024/03/28 02:41:11;;;;;;;4.88;2.53;;;;;;;1.62;80.71;97677.34;2474692;29;20035;-83
2024/03/28 02:42:24;;;;;;;3.75;2.30;;;;;;;1.61;81.04;97679.06;2482309;29;20027;-83
2024/03/28 02:43:37;;;;;;;4.35;2.67;;;;;;;1.57;80.86;97676.56;2482509;29;20062;-84
2024/03/28 02:44:50;;;;;;;2.83;2.60;;;;;;;1.53;81.00;97671.50;2472031;29;20033;-83
2024/03/28 02:46:04;;;;;;;3.25;2.40;;;;;;;1.53;80.73;97665.53;2486206;29;20447;-83
2024/03/28 02:47:17;;;;;;;2.53;2.20;;;;;;;1.50;80.87;97658.72;2481362;28;20339;-83
2024/03/28 02:48:30;;;;;;;2.67;2.42;;;;;;;1.50;80.81;97658.72;2502965;28;20026;-83
2024/03/28 02:49:43;;;;;;;3.50;2.30;;;;;;;1.48;81.00;97657.91;2490528;28;20046;-83
2024/03/28 02:50:57;;;;;;;3.28;2.60;;;;;;;1.46;80.77;97658.81;2467018;29;20067;-83
2024/03/28 02:52:10;;;;;;;5.82;2.38;;;;;;;1.45;80.60;97659.69;2474045;28;20035;-83
2024/03/28 02:53:23;;;;;;;2.58;2.20;;;;;;;1.40;80.68;97659.78;2479271;29;20111;-83
2024/03/28 02:54:36;;;;;;;3.55;3.10;;;;;;;1.34;80.49;97659.03;2479035;29;20467;-83
2024/03/28 02:55:50;;;;;;;2.63;2.42;;;;;;;1.28;80.53;97658.28;2479029;29;20107;-83
2024/03/28 02:57:05;;;;;;;10.73;4.43;;;;;;;1.25;80.70;97657.50;2494470;28;20054;-82
2024/03/28 02:58:18;;;;;;;4.18;3.15;;;;;;;1.23;80.61;97657.53;2487510;28;20378;-83
2024/03/28 02:59:31;;;;;;;3.60;2.85;;;;;;;1.21;80.48;97661.84;2478043;28;20127;-83
2024/03/28 03:00:45;;;;;;;3.00;2.70;;;;;;;1.22;80.87;97666.13;2517774;28;20025;-83
2024/03/28 03:01:58;;;;;;;3.15;2.72;;;;;;;1.23;80.80;97654.97;2501621;28;20127;-83
2024/03/28 03:03:11;;;;;;;2.78;2.58;;;;;;;1.22;80.85;97663.56;2469033;28;20028;-83
2024/03/28 03:04:24;;;;;;;3.95;2.60;;;;;;;1.22;80.81;97653.28;2475746;29;20493;-83
2024/03/28 03:05:38;;;;;;;8.70;2.83;;;;;;;1.22;80.93;97650.72;2514267;28;20056;-83
2024/03/28 03:06:51;;;;;;;2.42;2.25;;;;;;;1.20;80.67;97644.75;2492252;28;20030;-83
2024/03/28 03:08:04;;;;;;;2.97;2.60;;;;;;;1.16;80.64;97653.41;2465412;28;20040;-83
2024/03/28 03:09:18;;;;;;;3.10;2.55;;;;;;;1.11;80.50;97651.78;2465690;29;20156;-83
2024/03/28 03:10:31;;;;;;;4.90;2.67;;;;;;;1.06;80.56;97649.31;2469272;29;20428;-84
2024/03/28 03:11:44;;;;;;;3.28;2.97;;;;;;;1.03;80.85;97639.09;2468797;28;20501;-83
2024/03/28 03:12:57;;;;;;;4.15;3.78;;;;;;;1.02;80.57;97647.69;2469474;28;20663;-83
2024/03/28 03:14:11;;;;;;;8.10;2.70;;;;;;;1.02;80.93;97645.94;2460610;28;20088;-83
2024/03/28 03:15:24;;;;;;;2.63;2.42;;;;;;;1.00;80.95;97639.16;2471125;28;20040;-82
2024/03/28 03:16:37;;;;;;;3.53;2.78;;;;;;;0.97;80.82;97640.06;2488706;29;20045;-82
2024/03/28 03:17:50;;;;;;;7.05;2.95;;;;;;;0.95;80.71;97634.09;2484188;29;20024;-81
2024/03/28 03:19:04;;;;;;;3.17;2.90;;;;;;;0.95;80.72;97633.25;2475275;28;20031;-82
2024/03/28 03:20:17;;;;;;;2.97;2.58;;;;;;;0.93;80.86;97633.28;2484205;29;20020;-81
2024/03/28 03:21:30;;;;;;;4.15;3.85;;;;;;;0.93;81.08;97640.13;2479274;28;20499;-83
2024/03/28 03:22:51;;;;;;;4.32;2.83;;;;;;;0.92;80.90;97638.44;2487276;29;20341;-82
2024/03/28 03:24:05;;;;;;;6.70;2.50;;;;;;;0.93;81.12;97642.69;2478595;28;20103;-82
2024/03/28 03:25:25;;;;;;;2.83;2.63;;;;;;;0.92;81.14;97635.88;2480530;28;20023;-82
2024/03/28 03:26:38;;;;;;;3.58;2.45;;;;;;;0.89;80.81;97648.78;2480210;29;20396;-83
2024/03/28 03:35:31;;;;;;;5.57;2.40;;;;;;;0.67;81.00;97651.69;2481656;28;20866;-83
2024/03/28 03:36:44;;;;;;;2.88;2.63;;;;;;;0.64;80.70;97632.06;2526371;28;20048;-83
2024/03/28 03:37:58;;;;;;;3.40;2.22;;;;;;;0.62;80.97;97630.41;2475409;29;20032;-82
2024/03/28 03:39:11;;;;;;;4.10;3.05;;;;;;;0.60;80.99;97638.16;2475036;28;20035;-82
2024/03/28 03:40:25;;;;;;;2.92;2.55;;;;;;;0.58;80.91;97632.19;2471747;28;20024;-82
2024/03/28 03:41:38;;;;;;;3.13;2.85;;;;;;;0.56;81.07;97622.81;2478826;28;20039;-82
2024/03/28 03:42:51;;;;;;;3.00;2.75;;;;;;;0.52;80.95;97622.03;2485523;28;20027;-82
2024/03/28 03:44:04;;;;;;;3.58;2.88;;;;;;;0.49;81.14;97627.22;2488031;28;20035;-83
2024/03/28 03:45:20;;;;;;;4.95;3.03;;;;;;;0.47;80.98;97625.56;2475205;28;20043;-83
2024/03/28 03:46:33;;;;;;;2.58;2.38;;;;;;;0.47;81.12;97618.69;2472005;29;20025;-82
2024/03/28 03:47:46;;;;;;;3.03;2.70;;;;;;;0.46;81.11;97616.16;2478263;29;20306;-83
2024/03/28 03:48:59;;;;;;;3.40;2.78;;;;;;;0.45;81.31;97615.31;2478720;28;20028;-82
2024/03/28 03:50:13;;;;;;;3.42;2.80;;;;;;;0.42;81.00;97620.50;2474736;28;20456;-83
2024/03/28 03:51:26;;;;;;;3.05;2.58;;;;;;;0.38;81.27;97614.56;2468976;28;20458;-82
2024/03/28 03:52:39;;;;;;;3.40;3.10;;;;;;;0.37;80.95;97609.47;2476784;29;20393;-82
2024/03/28 03:53:52;;;;;;;4.32;3.22;;;;;;;0.35;81.92;97601.78;2491534;29;20078;-82
2024/03/28 03:55:06;;;;;;;4.43;2.63;;;;;;;0.35;81.39;97604.34;2475239;29;20103;-82
2024/03/28 03:56:19;;;;;;;3.20;2.53;;;;;;;0.34;81.63;97594.97;2475024;28;20016;-82
2024/03/28 03:57:32;;;;;;;3.58;2.85;;;;;;;0.32;81.36;97596.72;2469036;29;20508;-83
2024/03/28 03:58:45;;;;;;;5.15;4.63;;;;;;;0.32;81.44;97599.28;2469533;29;20020;-82
2024/03/28 03:59:59;;;;;;;2.83;2.50;;;;;;;0.31;81.42;97597.59;2468563;29;20032;-82
2024/03/28 04:01:12;;;;;;;5.75;4.03;;;;;;;0.32;81.18;97603.56;2490396;28;20049;-82
2024/03/28 04:02:25;;;;;;;3.05;2.45;;;;;;;0.29;81.19;97591.63;2488895;28;20031;-82
2024/03/28 04:03:38;;;;;;;7.75;3.65;;;;;;;0.29;81.44;97593.38;2468606;28;20032;-82
2024/03/28 04:04:51;;;;;;;4.88;2.58;;;;;;;0.28;81.35;97584.78;2468924;28;20138;-81
2024/03/28 04:06:05;;;;;;;3.70;3.00;;;;;;;0.25;81.50;97578.88;2472213;29;20024;-81
2024/03/28 04:07:19;;;;;;;4.25;2.72;;;;;;;0.24;81.51;97574.63;2500364;28;20103;-82
2024/03/28 04:08:32;;;;;;;4.28;3.60;;;;;;;0.23;81.55;97576.34;2490468;28;20045;-82
2024/03/28 04:09:47;;;;;;;2.78;2.42;;;;;;;0.25;81.61;97566.06;2476558;28;20028;-82
2024/03/28 04:11:00;;;;;;;4.78;2.72;;;;;;;0.27;81.64;97570.28;2485812;29;20035;-82
2024/03/28 04:12:13;;;;;;;3.30;2.97;;;;;;;0.29;81.48;97563.44;2474623;29;20282;-83
2024/03/28 04:13:26;;;;;;;3.85;3.40;;;;;;;0.29;81.47;97560.88;2471046;28;20028;-82
2024/03/28 04:14:40;;;;;;;9.38;3.67;;;;;;;0.29;81.59;97558.28;2468406;28;20025;-82
2024/03/28 04:15:53;;;;;;;16.50;3.67;;;;;;;0.29;81.41;97563.44;2476113;28;20370;-82
2024/03/28 04:17:06;;;;;;;6.30;2.97;;;;;;;0.27;81.53;97570.28;2508863;28;20029;-83
2024/03/28 04:18:19;;;;;;;3.75;2.75;;;;;;;0.25;81.48;97577.16;2500128;28;20031;-82
2024/03/28 04:19:34;;;;;;;5.13;2.65;;;;;;;0.22;81.65;97565.25;2477538;28;20055;-82
2024/03/28 04:20:48;;;;;;;4.70;3.35;;;;;;;0.19;81.56;97561.88;2460834;28;20029;-82
2024/03/28 04:22:01;;;;;;;2.97;2.67;;;;;;;0.17;81.61;97571.31;2471429;28;20655;-82
2024/03/28 04:23:14;;;;;;;6.53;3.45;;;;;;;0.17;81.73;97558.50;2484371;28;20487;-81
2024/03/28 04:24:28;;;;;;;4.57;3.22;;;;;;;0.16;81.69;97555.09;2485435;28;20023;-81
2024/03/28 04:25:41;;;;;;;2.95;2.50;;;;;;;0.18;81.78;97561.03;2476939;28;20434;-81
2024/03/28 04:26:54;;;;;;;2.92;2.55;;;;;;;0.19;81.80;97557.59;2507461;28;20097;-81
2024/03/28 04:28:07;;;;;;;4.80;3.20;;;;;;;0.19;81.57;97556.75;2468136;28;20501;-81
2024/03/28 04:29:20;;;;;;;3.38;3.03;;;;;;;0.18;81.61;97552.47;2473582;28;20488;-81
2024/03/28 04:30:38;;;;;;;4.53;3.05;;;;;;;0.16;81.80;97547.41;2471564;29;20059;-82
2024/03/28 04:31:51;;;;;;;4.43;2.95;;;;;;;0.13;81.67;97549.16;2477868;28;20042;-82
2024/03/28 04:33:04;;;;;;;3.00;2.70;;;;;;;0.12;81.58;97555.16;2475903;28;20284;-82
2024/03/28 04:34:18;;;;;;;3.50;3.20;;;;;;;0.10;81.67;97552.59;2473432;29;20028;-82
2024/03/28 04:35:31;;;;;;;3.38;3.05;;;;;;;0.08;81.78;97553.50;2477456;28;20093;-81
2024/03/28 04:36:44;;;;;;;7.72;3.70;;;;;;;0.04;81.60;97547.59;2470144;29;20028;-82
2024/03/28 04:37:57;;;;;;;4.20;3.80;;;;;;;0.01;81.97;97545.09;2477963;28;20031;-81
2024/03/28 04:39:13;;;;;;;2.70;2.50;;;;;;;-0.03;81.66;97541.75;2474152;28;20059;-82
2024/03/28 04:40:26;;;;;;;3.72;2.90;;;;;;;-0.05;81.67;97540.91;2473001;28;20031;-82
2024/03/28 04:41:39;;;;;;;4.20;3.80;;;;;;;-0.05;81.96;97543.47;2478601;29;21122;-81
2024/03/28 04:42:52;;;;;;;7.25;3.83;;;;;;;-0.07;81.65;97550.34;2476565;29;20481;-81
2024/03/28 04:44:05;;;;;;;3.30;2.85;;;;;;;-0.12;81.62;97551.28;2474859;28;20044;-82
2024/03/28 04:45:19;;;;;;;4.80;3.75;;;;;;;-0.18;81.73;97556.50;2465657;29;20484;-81
2024/03/28 04:46:33;;;;;;;4.47;3.83;;;;;;;-0.20;81.80;97565.94;2452549;28;20028;-81
2024/03/28 04:47:50;;;;;;;5.60;5.07;;;;;;;-0.23;81.70;97557.41;2459605;28;20547;-81
2024/03/28 04:49:04;;;;;;;3.65;2.90;;;;;;;-0.27;82.00;97552.34;2462344;29;20032;-81
2024/03/28 04:50:18;;;;;;;5.22;2.88;;;;;;;-0.27;81.75;97552.34;2517470;28;20277;-80
2024/03/28 04:51:31;;;;;;;5.63;3.85;;;;;;;-0.29;81.71;97548.97;2506318;28;20040;-81
2024/03/28 04:52:44;;;;;;;4.15;2.88;;;;;;;-0.31;82.06;97546.44;2483487;28;20854;-81
2024/03/28 04:53:59;;;;;;;23.48;4.10;;;;;;;-0.31;81.97;97551.56;2479965;29;20473;-80
2024/03/28 04:55:12;;;;;;;4.25;3.28;;;;;;;-0.32;82.21;97551.59;2474902;28;20107;-81
2024/03/28 04:56:26;;;;;;;3.42;2.92;;;;;;;-0.33;81.82;97544.78;2474256;28;20723;-81
2024/03/28 04:57:39;;;;;;;4.07;3.28;;;;;;;-0.31;82.06;97549.00;2473999;29;20121;-81
2024/03/28 04:58:52;;;;;;;4.10;3.10;;;;;;;-0.30;81.96;97548.13;2475567;29;20032;-81
2024/03/28 05:00:08;;;;;;;6.03;3.60;;;;;;;-0.28;82.07;97551.53;2474646;29;20049;-81
2024/03/28 05:01:21;;;;;;;3.45;2.60;;;;;;;-0.28;82.13;97548.97;2485873;28;20026;-81
2024/03/28 05:02:35;;;;;;;4.20;3.67;;;;;;;-0.25;82.13;97550.63;2477843;28;20286;-81
2024/03/28 05:03:48;;;;;;;4.63;3.05;;;;;;;-0.25;81.82;97553.19;2457807;28;20036;-81
2024/03/28 05:05:02;;;;;;;6.63;4.05;;;;;;;-0.24;81.90;97557.44;2467863;29;20035;-81
2024/03/28 05:06:15;;;;;;;6.53;4.15;;;;;;;-0.23;81.96;97557.41;2464809;28;20028;-81
2024/03/28 05:07:29;;;;;;;6.85;4.05;;;;;;;-0.22;82.27;97551.41;2467349;28;20919;-81
2024/03/28 05:08:42;;;;;;;4.70;4.07;;;;;;;-0.18;82.36;97557.34;2466343;29;20028;-81
2024/03/28 05:09:56;;;;;;;8.65;5.25;;;;;;;-0.15;82.31;97559.88;2469502;28;20024;-81
2024/03/28 05:11:09;;;;;;;7.22;4.50;;;;;;;-0.10;82.37;97552.97;2477479;28;20027;-81
2024/03/28 05:12:22;;;;;;;6.25;5.13;;;;;;;-0.04;82.66;97550.28;2474159;29;20087;-81
2024/03/28 05:13:36;;;;;;;6.53;4.43;;;;;;;0.05;82.15;97544.16;2471461;28;20027;-81
2024/03/28 05:14:49;;;;;;;7.85;4.85;;;;;;;0.13;82.69;97546.59;2510524;28;20392;-81
2024/03/28 05:16:03;;;;;;;26.13;13.98;;;;;;;0.20;82.65;97554.16;2481478;28;20043;-81
2024/03/28 05:17:16;;;;;;;70.80;39.03;;;;;;;0.28;82.37;97546.31;2470010;29;20094;-81
2024/03/28 05:18:29;;;;;;;123.32;66.28;;;;;;;0.37;82.76;97541.03;2461783;29;20110;-81
2024/03/28 05:19:42;;;;;;;59.42;32.55;;;;;;;0.47;82.75;97548.59;2510021;28;20034;-82
2024/03/28 05:20:56;;;;;;;37.78;20.35;;;;;;;0.54;82.87;97551.03;2509904;28;20484;-81
2024/03/28 05:22:09;;;;;;;47.67;23.23;;;;;;;0.61;82.64;97549.16;2483840;29;20024;-80
2024/03/28 05:23:23;;;;;;;46.88;25.48;;;;;;;0.66;82.81;97555.06;2483859;28;20484;-80
2024/03/28 05:24:36;;;;;;;51.03;32.03;;;;;;;0.72;82.53;97549.81;2473955;29;20505;-80
2024/03/28 05:25:49;;;;;;;44.13;26.35;;;;;;;0.75;82.66;97547.19;2510810;28;20026;-81
2024/03/28 05:27:02;;;;;;;40.72;27.15;;;;;;;0.81;83.07;97547.06;2502870;28;20036;-80
2024/03/28 05:28:16;;;;;;;39.58;21.92;;;;;;;0.86;82.47;97542.69;2477605;29;20083;-81
2024/03/28 05:29:29;;;;;;;44.53;23.23;;;;;;;0.93;82.74;97547.69;2494201;28;20065;-81
2024/03/28 05:30:42;;;;;;;34.60;22.77;;;;;;;0.99;82.44;97550.16;2487316;28;20031;-81
2024/03/28 05:31:55;;;;;;;30.52;18.77;;;;;;;1.06;82.46;97551.72;2476721;28;20073;-80
2024/03/28 05:33:09;;;;;;;37.95;20.27;;;;;;;1.12;82.18;97554.16;2479833;29;20530;-81
2024/03/28 05:34:22;;;;;;;22.77;14.27;;;;;;;1.16;82.44;97550.66;2483209;29;20027;-82
2024/03/28 05:35:35;;;;;;;21.02;12.55;;;;;;;1.23;82.35;97548.81;2493576;28;20034;-82
2024/03/28 05:36:49;;;;;;;20.15;13.88;;;;;;;1.34;82.30;97546.00;2472585;29;20032;-81
2024/03/28 05:38:02;;;;;;;13.73;8.23;;;;;;;1.43;81.90;97551.78;2469819;29;20044;-80
2024/03/28 05:39:19;;;;;;;8.95;6.85;;;;;;;1.51;82.28;97554.19;2471197;28;20027;-81
2024/03/28 05:40:33;;;;;;;24.75;12.73;;;;;;;1.62;82.07;97547.06;2476314;29;20016;-81
2024/03/28 05:41:46;;;;;;;40.05;22.23;;;;;;;1.71;82.19;97553.75;2499402;28;20047;-81
2024/03/28 05:42:59;;;;;;;52.75;31.73;;;;;;;1.77;82.19;97565.63;2485407;29;20055;-81
2024/03/28 05:44:12;;;;;;;52.00;33.30;;;;;;;1.84;81.62;97556.88;2486428;28;20036;-81
2024/03/28 05:45:26;;;;;;;47.22;25.05;;;;;;;1.93;81.81;97564.38;2483192;29;20050;-81
2024/03/28 05:46:39;;;;;;;38.20;25.60;;;;;;;1.98;81.77;97567.69;2477374;29;20513;-82
2024/03/28 05:47:52;;;;;;;24.33;14.18;;;;;;;2.05;81.58;97563.25;2484883;28;20515;-81
2024/03/28 05:49:06;;;;;;;20.00;12.68;;;;;;;2.12;81.68;97569.94;2467933;28;20127;-82
2024/03/28 05:50:19;;;;;;;18.95;10.68;;;;;;;2.17;81.62;97576.66;2467015;29;20024;-81
2024/03/28 05:51:33;;;;;;;12.13;9.57;;;;;;;2.24;81.60;97579.06;2474782;28;20036;-81
2024/03/28 05:52:46;;;;;;;15.98;9.00;;;;;;;2.28;81.54;97591.00;2491980;29;20091;-81
2024/03/28 05:53:59;;;;;;;14.63;11.00;;;;;;;2.33;81.66;97591.72;2483138;28;20035;-81
2024/03/28 05:55:12;;;;;;;13.07;10.43;;;;;;;2.39;81.60;97594.97;2507254;28;20020;-82
2024/03/28 05:56:26;;;;;;;4.97;4.57;;;;;;;2.47;81.29;97599.94;2482642;29;20040;-82